Time,TemperatureF,DewpointF,PressureIn,WindDirection,WindDirectionDegrees,WindSpeedMPH,WindSpeedGustMPH,Humidity,HourlyPrecipIn,Conditions,Clouds,dailyrainin,SolarRadiationWatts/m^2,SoftwareType,DateUTC
2013-09-03 00:01:00,65.6,65.6,29.78,NE,38,0.0,0.0,100,0.00,,,0.00,1742,WeatherCatV1.15B25,2013-09-03 04:01:00,
2013-09-03 00:06:00,65.5,65.5,29.77,NE,37,0.0,0.0,100,14.05,,,0.34,1742,WeatherCatV1.15B25,2013-09-03 04:06:00,
2013-09-03 00:11:00,65.3,65.3,29.77,NE,38,0.0,0.0,100,14.05,,,1.35,1742,WeatherCatV1.15B25,2013-09-03 04:11:00,
2013-09-03 00:16:00,65.3,65.3,29.77,NE,38,0.0,0.0,100,14.05,,,2.54,1742,WeatherCatV1.15B25,2013-09-03 04:16:00,
2013-09-03 00:21:00,65.2,65.2,29.76,NE,38,0.0,0.0,100,14.05,,,3.57,1744,WeatherCatV1.15B25,2013-09-03 04:21:00,
2013-09-03 00:26:00,65.2,65.2,29.75,NE,37,0.0,0.0,100,14.05,,,4.49,1744,WeatherCatV1.15B25,2013-09-03 04:26:00,
2013-09-03 00:31:00,65.2,65.2,29.74,NE,37,0.0,0.0,100,14.05,,,4.80,1742,WeatherCatV1.15B25,2013-09-03 04:31:00,
2013-09-03 00:36:00,64.9,64.9,29.74,NE,37,0.0,0.0,100,7.02,,,5.23,1744,WeatherCatV1.15B25,2013-09-03 04:36:00,
2013-09-03 00:41:00,64.6,64.6,29.74,NE,37,0.0,0.0,100,0.21,,,5.58,1742,WeatherCatV1.15B25,2013-09-03 04:41:00,
2013-09-03 00:46:00,64.5,64.5,29.75,NE,38,0.0,0.0,100,0.12,,,5.59,1744,WeatherCatV1.15B25,2013-09-03 04:46:00,
2013-09-03 00:51:00,64.5,64.5,29.75,NE,38,0.0,0.0,100,14.05,,,6.02,1744,WeatherCatV1.15B25,2013-09-03 04:51:00,
2013-09-03 00:56:00,64.5,64.5,29.75,NE,38,0.0,0.0,100,0.40,,,6.26,1742,WeatherCatV1.15B25,2013-09-03 04:56:00,
2013-09-03 01:01:00,64.6,64.6,29.74,NE,37,0.0,0.0,100,14.05,,,6.51,1744,WeatherCatV1.15B25,2013-09-03 05:01:00,
2013-09-03 01:06:00,64.5,64.5,29.73,NE,38,0.0,0.0,100,14.05,,,7.59,1744,WeatherCatV1.15B25,2013-09-03 05:06:00,
2013-09-03 01:11:00,64.5,64.5,29.73,NE,37,0.0,0.0,100,14.40,,,8.71,1744,WeatherCatV1.15B25,2013-09-03 05:11:00,
2013-09-03 01:16:00,64.5,64.5,29.73,NE,38,0.0,0.0,100,14.40,,,9.42,1742,WeatherCatV1.15B25,2013-09-03 05:16:00,
2013-09-03 01:21:00,64.4,64.4,29.73,ESE,109,0.0,0.0,100,14.05,,,10.36,1742,WeatherCatV1.15B25,2013-09-03 05:21:00,
2013-09-03 01:26:00,64.4,64.4,29.73,ESE,112,0.0,0.0,100,14.40,,,11.42,1742,WeatherCatV1.15B25,2013-09-03 05:26:00,
2013-09-03 01:31:00,64.4,64.4,29.72,ESE,111,0.0,0.0,100,14.05,,,12.50,1742,WeatherCatV1.15B25,2013-09-03 05:31:00,
2013-09-03 01:36:00,64.4,64.4,29.72,ESE,111,0.0,0.0,100,36.00,,,13.35,1742,WeatherCatV1.15B25,2013-09-03 05:36:00,
2013-09-03 01:41:00,64.2,64.2,29.72,ESE,112,0.0,0.0,100,14.40,,,14.44,1742,WeatherCatV1.15B25,2013-09-03 05:41:00,
2013-09-03 01:46:00,64.1,64.1,29.72,ESE,112,0.0,0.0,100,24.00,,,15.61,1742,WeatherCatV1.15B25,2013-09-03 05:46:00,
2013-09-03 01:51:00,64.1,64.1,29.72,ESE,111,0.0,0.0,100,36.00,,,16.02,1742,WeatherCatV1.15B25,2013-09-03 05:51:00,
2013-09-03 01:56:00,64.3,64.3,29.73,ESE,112,0.0,0.0,100,0.40,,,16.59,1742,WeatherCatV1.15B25,2013-09-03 05:56:00,
2013-09-03 02:01:00,64.4,64.4,29.72,ESE,112,0.0,0.0,100,14.40,,,17.52,1742,WeatherCatV1.15B25,2013-09-03 06:01:00,
2013-09-03 02:06:00,64.6,64.6,29.72,ESE,111,0.0,0.0,100,0.42,,,18.06,1742,WeatherCatV1.15B25,2013-09-03 06:06:00,
2013-09-03 02:11:00,64.6,64.6,29.72,ESE,111,0.0,0.0,100,38.40,,,18.22,1742,WeatherCatV1.15B25,2013-09-03 06:11:00,
2013-09-03 02:16:00,64.7,64.7,29.71,ESE,111,0.0,0.0,100,14.05,,,18.95,1742,WeatherCatV1.15B25,2013-09-03 06:16:00,
2013-09-03 02:21:00,64.7,64.7,29.71,ESE,111,0.0,0.0,100,14.05,,,19.77,1740,WeatherCatV1.15B25,2013-09-03 06:21:00,
2013-09-03 02:26:00,64.5,64.5,29.71,ESE,111,0.0,0.0,100,14.40,,,20.94,1740,WeatherCatV1.15B25,2013-09-03 06:26:00,
2013-09-03 02:31:00,64.4,64.4,29.70,ESE,111,0.0,0.0,100,0.00,,,21.98,1740,WeatherCatV1.15B25,2013-09-03 06:31:00,
2013-09-03 02:36:00,64.3,64.3,29.70,ESE,111,0.0,0.0,100,14.40,,,22.59,1742,WeatherCatV1.15B25,2013-09-03 06:36:00,
2013-09-03 02:41:00,64.1,64.1,29.71,ESE,107,0.0,0.0,100,14.40,,,23.82,1742,WeatherCatV1.15B25,2013-09-03 06:41:00,
2013-09-03 02:46:00,63.9,63.9,29.71,ESE,107,0.0,0.0,100,14.40,,,24.36,1740,WeatherCatV1.15B25,2013-09-03 06:46:00,
2013-09-03 02:51:00,63.8,63.8,29.72,ESE,107,0.0,0.0,100,14.40,,,25.10,1742,WeatherCatV1.15B25,2013-09-03 06:51:00,
2013-09-03 02:56:00,63.8,63.8,29.72,ESE,107,0.0,0.0,100,14.40,,,26.12,1742,WeatherCatV1.15B25,2013-09-03 06:56:00,
2013-09-03 03:01:00,63.8,63.8,29.72,ESE,107,0.0,0.0,100,14.40,,,26.68,1742,WeatherCatV1.15B25,2013-09-03 07:01:00,
2013-09-03 03:06:00,63.7,63.7,29.71,ESE,107,0.0,0.0,100,14.40,,,27.83,1742,WeatherCatV1.15B25,2013-09-03 07:06:00,
2013-09-03 03:11:00,63.7,63.7,29.71,ESE,107,0.0,0.0,100,14.40,,,28.95,1742,WeatherCatV1.15B25,2013-09-03 07:11:00,
2013-09-03 03:16:00,63.7,63.7,29.71,ESE,107,0.0,0.0,100,14.40,,,30.18,1742,WeatherCatV1.15B25,2013-09-03 07:16:00,
2013-09-03 03:21:00,63.7,63.7,29.71,ESE,107,0.0,0.0,100,14.40,,,31.17,1742,WeatherCatV1.15B25,2013-09-03 07:21:00,
2013-09-03 03:26:00,63.6,63.6,29.71,ESE,107,0.0,0.0,100,14.40,,,32.36,1742,WeatherCatV1.15B25,2013-09-03 07:26:00,
2013-09-03 03:31:00,63.6,63.6,29.72,ESE,107,0.0,0.0,100,14.40,,,33.29,1742,WeatherCatV1.15B25,2013-09-03 07:31:00,
2013-09-03 03:36:00,63.7,63.7,29.72,ESE,107,0.0,0.0,100,14.05,,,34.25,1742,WeatherCatV1.15B25,2013-09-03 07:36:00,
2013-09-03 03:41:00,63.7,63.7,29.72,ESE,107,0.0,0.0,100,14.77,,,35.00,1740,WeatherCatV1.15B25,2013-09-03 07:41:00,
2013-09-03 03:46:00,63.7,63.7,29.71,ESE,107,0.0,0.0,100,13.40,,,36.09,1740,WeatherCatV1.15B25,2013-09-03 07:46:00,
2013-09-03 03:51:00,63.7,63.7,29.71,ESE,107,0.0,0.0,100,14.05,,,37.15,1740,WeatherCatV1.15B25,2013-09-03 07:51:00,
2013-09-03 03:56:00,63.8,63.8,29.71,ESE,107,0.0,0.0,100,14.05,,,38.24,1740,WeatherCatV1.15B25,2013-09-03 07:56:00,
2013-09-03 04:01:00,63.9,63.9,29.72,ESE,107,0.0,0.0,100,14.40,,,38.88,1740,WeatherCatV1.15B25,2013-09-03 08:01:00,
2013-09-03 04:06:00,64.0,64.0,29.72,ESE,107,0.0,0.0,100,14.05,,,39.99,1740,WeatherCatV1.15B25,2013-09-03 08:06:00,
2013-09-03 04:11:00,64.1,64.1,29.72,ESE,107,0.0,0.0,100,19.86,,,41.13,1740,WeatherCatV1.15B25,2013-09-03 08:11:00,
2013-09-03 04:16:00,64.1,64.1,29.72,ESE,107,0.0,0.0,100,14.40,,,42.19,1740,WeatherCatV1.15B25,2013-09-03 08:16:00,
2013-09-03 04:21:00,64.0,64.0,29.72,ESE,107,0.0,0.0,100,16.00,,,43.01,1738,WeatherCatV1.15B25,2013-09-03 08:21:00,
2013-09-03 04:26:00,63.9,63.9,29.71,ESE,107,0.0,0.0,100,14.05,,,44.28,1738,WeatherCatV1.15B25,2013-09-03 08:26:00,
2013-09-03 04:31:00,63.8,63.8,29.72,ESE,107,0.0,0.0,100,14.40,,,45.25,1740,WeatherCatV1.15B25,2013-09-03 08:31:00,
2013-09-03 04:36:00,63.8,63.8,29.72,ESE,107,0.0,0.0,100,0.00,,,45.85,1740,WeatherCatV1.15B25,2013-09-03 08:36:00,
2013-09-03 04:41:00,63.7,63.7,29.72,ESE,107,0.0,0.0,100,14.05,,,46.91,1740,WeatherCatV1.15B25,2013-09-03 08:41:00,
2013-09-03 04:46:00,63.7,63.7,29.72,ESE,107,0.0,0.0,100,14.05,,,47.57,1738,WeatherCatV1.15B25,2013-09-03 08:46:00,
2013-09-03 04:51:00,63.7,63.7,29.72,ESE,107,0.0,0.0,100,14.05,,,48.57,1738,WeatherCatV1.15B25,2013-09-03 08:51:00,
2013-09-03 04:56:00,63.7,63.7,29.72,ESE,107,0.0,0.0,100,14.05,,,49.69,1738,WeatherCatV1.15B25,2013-09-03 08:56:00,
2013-09-03 05:01:00,63.8,63.8,29.73,ESE,107,0.0,0.0,100,19.20,,,50.41,1738,WeatherCatV1.15B25,2013-09-03 09:01:00,
2013-09-03 05:06:00,63.8,63.8,29.73,ESE,107,0.0,0.0,100,2.36,,,51.32,1738,WeatherCatV1.15B25,2013-09-03 09:06:00,
2013-09-03 05:11:00,63.8,63.8,29.73,ESE,107,0.0,0.0,100,0.11,,,51.32,1738,WeatherCatV1.15B25,2013-09-03 09:11:00,
2013-09-03 05:16:00,63.7,63.7,29.73,ESE,107,0.0,0.0,100,0.06,,,51.32,1738,WeatherCatV1.15B25,2013-09-03 09:16:00,
2013-09-03 05:21:00,63.7,63.7,29.73,ESE,107,0.0,0.0,100,0.04,,,51.32,1738,WeatherCatV1.15B25,2013-09-03 09:21:00,
2013-09-03 05:26:00,63.7,63.7,29.73,ESE,107,0.0,0.0,100,0.00,,,51.32,1738,WeatherCatV1.15B25,2013-09-03 09:26:00,
2013-09-03 05:31:00,63.8,63.8,29.73,ESE,107,0.0,0.0,100,0.00,,,51.32,1738,WeatherCatV1.15B25,2013-09-03 09:31:00,
2013-09-03 05:36:00,63.8,63.8,29.73,ESE,107,0.0,0.0,100,0.00,,,51.32,1738,WeatherCatV1.15B25,2013-09-03 09:36:00,
2013-09-03 05:41:00,63.8,63.8,29.73,ESE,107,0.0,0.0,100,0.00,,,51.32,1738,WeatherCatV1.15B25,2013-09-03 09:41:00,
2013-09-03 05:46:00,63.8,63.8,29.73,ESE,107,0.0,0.0,100,0.00,,,51.32,1738,WeatherCatV1.15B25,2013-09-03 09:46:00,
2013-09-03 05:51:00,63.9,63.9,29.73,ESE,107,0.0,0.0,100,0.00,,,51.32,1738,WeatherCatV1.15B25,2013-09-03 09:51:00,
2013-09-03 05:56:00,63.9,63.9,29.73,ESE,107,0.0,0.0,100,0.00,,,51.32,1738,WeatherCatV1.15B25,2013-09-03 09:56:00,
2013-09-03 06:01:00,64.1,64.1,29.73,ESE,107,0.0,0.0,100,0.00,,,51.32,1738,WeatherCatV1.15B25,2013-09-03 10:01:00,
2013-09-03 06:06:00,64.2,64.2,29.73,ESE,107,0.0,0.0,100,0.00,,,51.32,1738,WeatherCatV1.15B25,2013-09-03 10:06:00,
2013-09-03 06:11:00,64.2,64.2,29.73,ESE,107,0.0,0.0,100,0.00,,,51.32,1737,WeatherCatV1.15B25,2013-09-03 10:11:00,
2013-09-03 06:16:00,64.2,64.2,29.73,ESE,107,0.0,0.0,100,0.00,,,51.32,1737,WeatherCatV1.15B25,2013-09-03 10:16:00,
2013-09-03 06:21:00,64.2,64.2,29.73,ESE,107,0.0,0.0,100,0.00,,,51.32,1737,WeatherCatV1.15B25,2013-09-03 10:21:00,
2013-09-03 06:26:00,64.2,64.2,29.73,ESE,107,0.0,0.0,100,0.00,,,51.32,1737,WeatherCatV1.15B25,2013-09-03 10:26:00,
2013-09-03 06:31:00,64.2,64.2,29.74,ESE,105,0.0,1.0,100,0.00,,,51.32,1737,WeatherCatV1.15B25,2013-09-03 10:31:00,
2013-09-03 06:36:00,64.2,64.2,29.74,ESE,105,0.0,0.0,100,0.00,,,51.32,1737,WeatherCatV1.15B25,2013-09-03 10:36:00,
2013-09-03 06:41:00,64.2,64.2,29.74,ESE,105,0.0,0.0,100,0.00,,,51.32,1737,WeatherCatV1.15B25,2013-09-03 10:41:00,
2013-09-03 06:46:00,64.2,64.2,29.74,ESE,105,0.0,1.0,100,0.00,,,51.32,1737,WeatherCatV1.15B25,2013-09-03 10:46:00,
2013-09-03 06:51:00,64.2,64.2,29.75,ESE,105,0.0,0.0,100,0.00,,,51.32,1737,WeatherCatV1.15B25,2013-09-03 10:51:00,
2013-09-03 06:56:00,64.2,64.2,29.75,ESE,105,0.0,0.0,100,0.00,,,51.32,1737,WeatherCatV1.15B25,2013-09-03 10:56:00,
2013-09-03 07:01:00,64.2,64.2,29.75,ESE,105,0.0,0.0,100,0.00,,,51.32,1737,WeatherCatV1.15B25,2013-09-03 11:01:00,
2013-09-03 07:06:00,64.1,64.1,29.75,ESE,105,0.0,0.0,100,0.00,,,51.32,1737,WeatherCatV1.15B25,2013-09-03 11:06:00,
2013-09-03 07:11:00,64.1,64.1,29.75,ESE,105,0.0,0.0,100,0.00,,,51.32,1735,WeatherCatV1.15B25,2013-09-03 11:11:00,
2013-09-03 07:16:00,64.1,64.1,29.75,ESE,105,0.0,0.0,100,0.00,,,51.32,1737,WeatherCatV1.15B25,2013-09-03 11:16:00,
2013-09-03 07:21:00,64.1,64.1,29.75,ESE,105,0.0,0.0,100,0.00,,,51.32,1737,WeatherCatV1.15B25,2013-09-03 11:21:00,
2013-09-03 07:26:00,64.2,64.2,29.75,ESE,105,0.0,0.0,100,0.00,,,51.32,1737,WeatherCatV1.15B25,2013-09-03 11:26:00,
2013-09-03 07:31:00,64.2,64.2,29.76,ESE,105,0.0,0.0,100,0.00,,,51.32,1735,WeatherCatV1.15B25,2013-09-03 11:31:00,
2013-09-03 07:36:00,64.3,64.3,29.75,ESE,105,0.0,0.0,100,0.00,,,51.32,1735,WeatherCatV1.15B25,2013-09-03 11:36:00,
2013-09-03 07:41:00,64.3,64.3,29.75,ESE,105,0.0,0.0,100,0.00,,,51.32,1735,WeatherCatV1.15B25,2013-09-03 11:41:00,
2013-09-03 07:46:00,64.4,64.4,29.75,ESE,105,0.0,0.0,100,0.00,,,51.32,1735,WeatherCatV1.15B25,2013-09-03 11:46:00,
2013-09-03 07:51:00,64.5,64.5,29.76,ESE,105,0.0,0.0,100,0.00,,,51.32,1735,WeatherCatV1.15B25,2013-09-03 11:51:00,
2013-09-03 07:56:00,64.7,64.7,29.76,ESE,105,0.0,0.0,100,0.00,,,51.32,1735,WeatherCatV1.15B25,2013-09-03 11:56:00,
2013-09-03 08:01:00,64.5,64.5,29.76,ESE,105,0.0,0.0,100,0.00,,,51.32,1735,WeatherCatV1.15B25,2013-09-03 12:01:00,
2013-09-03 08:06:00,64.5,64.5,29.76,ESE,105,0.0,0.0,100,0.00,,,51.32,1735,WeatherCatV1.15B25,2013-09-03 12:06:00,
2013-09-03 08:11:00,64.4,64.4,29.76,ESE,105,0.0,0.0,100,0.00,,,51.32,1735,WeatherCatV1.15B25,2013-09-03 12:11:00,
2013-09-03 08:16:00,64.4,64.4,29.76,ESE,105,0.0,0.0,100,0.00,,,51.32,1735,WeatherCatV1.15B25,2013-09-03 12:16:00,
2013-09-03 08:21:00,64.4,64.4,29.76,ESE,105,0.0,0.0,100,0.00,,,51.32,1735,WeatherCatV1.15B25,2013-09-03 12:21:00,
2013-09-03 08:26:00,64.3,64.3,29.76,ESE,105,0.0,0.0,100,0.00,,,51.32,1735,WeatherCatV1.15B25,2013-09-03 12:26:00,
2013-09-03 08:31:00,64.3,64.3,29.76,ESE,105,0.0,0.0,100,0.00,,,51.32,1733,WeatherCatV1.15B25,2013-09-03 12:31:00,
2013-09-03 08:36:00,64.4,64.4,29.77,ESE,105,0.0,0.0,100,0.00,,,51.32,1733,WeatherCatV1.15B25,2013-09-03 12:36:00,
2013-09-03 08:41:00,64.5,64.5,29.77,ESE,105,0.0,0.0,100,0.00,,,51.32,1735,WeatherCatV1.15B25,2013-09-03 12:41:00,
2013-09-03 08:46:00,64.5,64.5,29.77,ESE,105,0.0,0.0,100,0.00,,,51.32,1733,WeatherCatV1.15B25,2013-09-03 12:46:00,
2013-09-03 08:51:00,64.6,64.6,29.78,ESE,105,0.0,0.0,100,0.00,,,51.32,1733,WeatherCatV1.15B25,2013-09-03 12:51:00,
2013-09-03 08:56:00,64.7,64.7,29.77,ESE,105,0.0,0.0,100,0.00,,,51.32,1733,WeatherCatV1.15B25,2013-09-03 12:56:00,
2013-09-03 09:01:00,64.7,64.7,29.78,ESE,105,0.0,0.0,100,0.00,,,51.32,1733,WeatherCatV1.15B25,2013-09-03 13:01:00,
2013-09-03 09:06:00,64.8,64.8,29.78,ESE,105,0.0,0.0,100,0.00,,,51.32,1735,WeatherCatV1.15B25,2013-09-03 13:06:00,
2013-09-03 09:11:00,64.6,64.6,29.78,ESE,105,0.0,0.0,100,0.00,,,51.32,1735,WeatherCatV1.15B25,2013-09-03 13:11:00,
2013-09-03 09:16:00,64.5,64.5,29.77,ESE,105,0.0,0.0,100,0.00,,,51.32,1735,WeatherCatV1.15B25,2013-09-03 13:16:00,
2013-09-03 09:21:00,64.3,64.3,29.77,ESE,105,0.0,0.0,100,0.00,,,51.32,1735,WeatherCatV1.15B25,2013-09-03 13:21:00,
2013-09-03 09:26:00,64.3,64.3,29.77,ESE,105,0.0,0.0,100,0.00,,,51.32,1735,WeatherCatV1.15B25,2013-09-03 13:26:00,
2013-09-03 09:31:00,64.4,64.4,29.78,ESE,105,0.0,0.0,100,0.00,,,51.32,1735,WeatherCatV1.15B25,2013-09-03 13:31:00,
2013-09-03 09:36:00,64.4,64.4,29.78,ESE,105,0.0,0.0,100,0.00,,,51.32,1735,WeatherCatV1.15B25,2013-09-03 13:36:00,
2013-09-03 09:41:00,64.4,64.4,29.78,ESE,105,0.0,0.0,100,0.00,,,51.32,1735,WeatherCatV1.15B25,2013-09-03 13:41:00,
2013-09-03 09:46:00,64.5,64.5,29.78,ESE,105,0.0,0.0,100,0.00,,,51.32,1735,WeatherCatV1.15B25,2013-09-03 13:46:00,
2013-09-03 09:51:00,64.6,64.6,29.78,ESE,105,0.0,0.0,100,0.00,,,51.32,1733,WeatherCatV1.15B25,2013-09-03 13:51:00,
2013-09-03 09:56:00,64.7,64.7,29.78,ESE,105,0.0,0.0,100,0.00,,,51.32,1733,WeatherCatV1.15B25,2013-09-03 13:56:00,
2013-09-03 10:01:00,64.8,64.8,29.78,ESE,105,0.0,0.0,100,0.00,,,51.32,1733,WeatherCatV1.15B25,2013-09-03 14:01:00,
2013-09-03 10:06:00,65.2,65.2,29.78,ESE,105,0.0,0.0,100,0.00,,,51.32,1733,WeatherCatV1.15B25,2013-09-03 14:06:00,
2013-09-03 10:11:00,65.4,65.4,29.78,ESE,105,0.0,0.0,100,0.00,,,51.32,1731,WeatherCatV1.15B25,2013-09-03 14:11:00,
2013-09-03 10:16:00,65.4,65.4,29.78,ESE,105,0.0,0.0,100,0.00,,,51.32,1731,WeatherCatV1.15B25,2013-09-03 14:16:00,
2013-09-03 10:21:00,65.4,65.4,29.78,ESE,105,0.0,0.0,100,0.00,,,51.32,1731,WeatherCatV1.15B25,2013-09-03 14:21:00,
2013-09-03 10:26:00,65.4,65.4,29.78,ESE,105,0.0,0.0,100,0.00,,,51.32,1731,WeatherCatV1.15B25,2013-09-03 14:26:00,
2013-09-03 10:31:00,65.2,65.2,29.78,ESE,105,0.0,0.0,100,0.00,,,51.32,1731,WeatherCatV1.15B25,2013-09-03 14:31:00,
2013-09-03 10:36:00,65.1,65.1,29.78,ESE,105,0.0,0.0,100,0.00,,,51.32,1731,WeatherCatV1.15B25,2013-09-03 14:36:00,
2013-09-03 10:41:00,65.1,65.1,29.78,ESE,105,0.0,0.0,100,0.00,,,51.32,1731,WeatherCatV1.15B25,2013-09-03 14:41:00,
2013-09-03 10:46:00,65.0,65.0,29.78,ESE,105,0.0,0.0,100,0.00,,,51.32,1730,WeatherCatV1.15B25,2013-09-03 14:46:00,
2013-09-03 10:51:00,65.0,65.0,29.78,ESE,105,0.0,0.0,100,0.00,,,51.32,1731,WeatherCatV1.15B25,2013-09-03 14:51:00,
2013-09-03 10:56:00,65.0,65.0,29.78,ESE,105,0.0,0.0,100,0.00,,,51.32,1731,WeatherCatV1.15B25,2013-09-03 14:56:00,
2013-09-03 11:01:00,65.0,65.0,29.78,ESE,105,0.0,0.0,100,0.00,,,51.32,1731,WeatherCatV1.15B25,2013-09-03 15:01:00,
2013-09-03 11:06:00,64.9,64.9,29.78,ESE,105,0.0,0.0,100,0.00,,,51.32,1731,WeatherCatV1.15B25,2013-09-03 15:06:00,
2013-09-03 11:11:00,64.8,64.8,29.78,ESE,105,0.0,0.0,100,0.00,,,51.32,1731,WeatherCatV1.15B25,2013-09-03 15:11:00,
2013-09-03 11:16:00,64.6,64.6,29.79,ESE,105,0.0,0.0,100,0.00,,,51.32,1731,WeatherCatV1.15B25,2013-09-03 15:16:00,
2013-09-03 11:21:00,64.5,64.5,29.79,ESE,105,0.0,0.0,100,0.00,,,51.32,1731,WeatherCatV1.15B25,2013-09-03 15:21:00,
2013-09-03 11:26:00,64.4,64.4,29.79,ESE,105,0.0,0.0,100,0.00,,,51.32,1731,WeatherCatV1.15B25,2013-09-03 15:26:00,
2013-09-03 11:31:00,64.4,64.4,29.79,ESE,105,0.0,0.0,100,0.00,,,51.32,1731,WeatherCatV1.15B25,2013-09-03 15:31:00,
2013-09-03 11:36:00,64.3,64.3,29.79,ESE,105,0.0,0.0,100,0.00,,,51.32,1733,WeatherCatV1.15B25,2013-09-03 15:36:00,
2013-09-03 11:41:00,64.3,64.3,29.78,ESE,105,0.0,0.0,100,0.00,,,51.32,1731,WeatherCatV1.15B25,2013-09-03 15:41:00,
2013-09-03 11:46:00,64.3,64.3,29.78,NNW,339,0.0,0.0,100,0.00,,,51.32,1733,WeatherCatV1.15B25,2013-09-03 15:46:00,
2013-09-03 11:51:00,64.3,64.3,29.78,NNW,339,0.0,1.0,100,0.00,,,51.32,1733,WeatherCatV1.15B25,2013-09-03 15:51:00,
2013-09-03 11:56:00,64.3,64.3,29.78,NNW,338,0.0,0.0,100,0.00,,,51.32,1731,WeatherCatV1.15B25,2013-09-03 15:56:00,
2013-09-03 12:01:00,64.3,64.3,29.78,NW,314,0.0,1.0,100,0.00,,,51.32,1731,WeatherCatV1.15B25,2013-09-03 16:01:00,
2013-09-03 12:06:00,64.2,64.2,29.77,NW,314,0.0,0.0,100,0.00,,,51.32,1733,WeatherCatV1.15B25,2013-09-03 16:06:00,
2013-09-03 12:11:00,64.2,64.2,29.77,NW,314,0.0,0.0,100,0.00,,,51.32,1733,WeatherCatV1.15B25,2013-09-03 16:11:00,
2013-09-03 12:16:00,64.3,64.3,29.78,NW,314,0.0,0.0,100,0.00,,,51.32,1733,WeatherCatV1.15B25,2013-09-03 16:16:00,
2013-09-03 12:21:00,64.2,64.2,29.78,NW,314,0.0,0.0,100,0.00,,,51.32,1731,WeatherCatV1.15B25,2013-09-03 16:21:00,
2013-09-03 12:26:00,64.1,64.1,29.78,NW,314,0.0,0.0,100,0.00,,,51.32,1731,WeatherCatV1.15B25,2013-09-03 16:26:00,
2013-09-03 12:31:00,64.2,64.2,29.78,NW,314,0.0,0.0,100,0.00,,,51.32,1731,WeatherCatV1.15B25,2013-09-03 16:31:00,
2013-09-03 12:36:00,64.2,64.2,29.78,NW,314,0.0,1.0,100,0.00,,,51.32,1731,WeatherCatV1.15B25,2013-09-03 16:36:00,
2013-09-03 12:41:00,64.2,64.2,29.78,NW,314,0.0,0.0,100,0.00,,,51.32,1731,WeatherCatV1.15B25,2013-09-03 16:41:00,
2013-09-03 12:46:00,64.2,64.2,29.78,NW,314,0.0,0.0,100,0.00,,,51.32,1731,WeatherCatV1.15B25,2013-09-03 16:46:00,
2013-09-03 12:51:00,64.4,64.4,29.78,NW,314,0.0,0.0,100,0.00,,,51.32,1731,WeatherCatV1.15B25,2013-09-03 16:51:00,
2013-09-03 12:56:00,64.5,64.5,29.79,NW,314,0.0,0.0,100,0.00,,,51.32,1731,WeatherCatV1.15B25,2013-09-03 16:56:00,
2013-09-03 13:01:00,64.6,64.6,29.79,NW,314,0.0,0.0,100,0.00,,,51.32,1730,WeatherCatV1.15B25,2013-09-03 17:01:00,
2013-09-03 13:06:00,64.7,64.7,29.79,NW,314,0.0,0.0,100,0.00,,,51.32,1730,WeatherCatV1.15B25,2013-09-03 17:06:00,
2013-09-03 13:11:00,64.7,64.7,29.79,NW,314,0.0,0.0,100,0.00,,,51.32,1730,WeatherCatV1.15B25,2013-09-03 17:11:00,
2013-09-03 13:16:00,64.5,64.5,29.79,NW,314,0.0,0.0,100,0.00,,,51.32,1731,WeatherCatV1.15B25,2013-09-03 17:16:00,
2013-09-03 13:21:00,64.4,64.4,29.79,NW,314,0.0,0.0,100,0.00,,,51.32,1730,WeatherCatV1.15B25,2013-09-03 17:21:00,
2013-09-03 13:26:00,64.7,64.7,29.79,NW,314,0.0,0.0,100,0.00,,,51.32,1730,WeatherCatV1.15B25,2013-09-03 17:26:00,
2013-09-03 13:31:00,65.1,65.1,29.79,NW,314,0.0,0.0,100,0.00,,,51.32,1730,WeatherCatV1.15B25,2013-09-03 17:31:00,
2013-09-03 13:36:00,65.2,65.2,29.79,NW,314,0.0,0.0,100,0.00,,,51.32,1728,WeatherCatV1.15B25,2013-09-03 17:36:00,
2013-09-03 13:41:00,65.3,65.3,29.78,NW,314,0.0,0.0,100,0.00,,,51.32,1728,WeatherCatV1.15B25,2013-09-03 17:41:00,
2013-09-03 13:46:00,65.6,65.6,29.78,NW,314,0.0,0.0,100,0.00,,,51.32,1728,WeatherCatV1.15B25,2013-09-03 17:46:00,
2013-09-03 13:51:00,66.0,66.0,29.78,NW,314,0.0,0.0,100,0.00,,,51.32,1726,WeatherCatV1.15B25,2013-09-03 17:51:00,
2013-09-03 13:56:00,65.7,65.7,29.78,NW,314,0.0,0.0,100,0.00,,,51.32,1724,WeatherCatV1.15B25,2013-09-03 17:56:00,
2013-09-03 14:01:00,65.8,65.8,29.77,NW,314,0.0,0.0,100,0.00,,,51.32,1723,WeatherCatV1.15B25,2013-09-03 18:01:00,
2013-09-03 14:06:00,66.1,66.1,29.77,NW,314,0.0,0.0,100,0.00,,,51.32,1723,WeatherCatV1.15B25,2013-09-03 18:06:00,
2013-09-03 14:11:00,66.3,66.3,29.77,NW,314,0.0,0.0,100,0.00,,,51.32,1723,WeatherCatV1.15B25,2013-09-03 18:11:00,
2013-09-03 14:16:00,66.4,66.4,29.77,NW,314,0.0,0.0,100,0.00,,,51.32,1724,WeatherCatV1.15B25,2013-09-03 18:16:00,
2013-09-03 14:21:00,66.5,66.5,29.77,SW,217,0.0,0.0,100,0.00,,,51.32,1723,WeatherCatV1.15B25,2013-09-03 18:21:00,
2013-09-03 14:26:00,66.7,66.4,29.77,SW,217,0.0,0.0,99,0.00,,,51.32,1724,WeatherCatV1.15B25,2013-09-03 18:26:00,
2013-09-03 14:31:00,66.8,66.5,29.77,SW,217,0.0,0.0,99,0.00,,,51.32,1724,WeatherCatV1.15B25,2013-09-03 18:31:00,
2013-09-03 14:36:00,66.8,66.2,29.77,SW,217,0.0,0.0,98,0.00,,,51.32,1724,WeatherCatV1.15B25,2013-09-03 18:36:00,
2013-09-03 14:41:00,67.0,66.4,29.77,SW,217,0.0,0.0,98,0.00,,,51.32,1723,WeatherCatV1.15B25,2013-09-03 18:41:00,
2013-09-03 14:46:00,67.2,66.6,29.77,SW,217,0.0,0.0,98,0.00,,,51.32,1726,WeatherCatV1.15B25,2013-09-03 18:46:00,
2013-09-03 14:51:00,67.4,66.5,29.76,SW,217,0.0,0.0,97,0.00,,,51.32,1726,WeatherCatV1.15B25,2013-09-03 18:51:00,
2013-09-03 14:56:00,67.5,66.3,29.77,SW,218,0.0,0.0,96,0.00,,,51.32,1724,WeatherCatV1.15B25,2013-09-03 18:56:00,
2013-09-03 15:01:00,67.5,65.7,29.76,SW,220,0.0,0.0,94,0.00,,,51.32,1724,WeatherCatV1.15B25,2013-09-03 19:01:00,
2013-09-03 15:06:00,67.6,65.5,29.76,SW,220,0.0,0.0,93,0.00,,,51.32,1726,WeatherCatV1.15B25,2013-09-03 19:06:00,
2013-09-03 15:11:00,68.0,66.5,29.76,SW,219,0.0,0.0,95,0.00,,,51.32,1726,WeatherCatV1.15B25,2013-09-03 19:11:00,
2013-09-03 15:16:00,68.6,67.1,29.76,SW,219,0.0,1.0,95,0.00,,,51.32,1724,WeatherCatV1.15B25,2013-09-03 19:16:00,
2013-09-03 15:21:00,68.9,66.5,29.76,SW,219,0.0,0.0,92,0.00,,,51.32,1724,WeatherCatV1.15B25,2013-09-03 19:21:00,
2013-09-03 15:26:00,69.2,66.8,29.76,SW,220,0.0,0.0,92,0.00,,,51.32,1724,WeatherCatV1.15B25,2013-09-03 19:26:00,
2013-09-03 15:31:00,69.2,66.5,29.77,SW,220,0.0,0.0,91,0.00,,,51.32,1724,WeatherCatV1.15B25,2013-09-03 19:31:00,
2013-09-03 15:36:00,69.3,66.6,29.76,SW,220,0.0,0.0,91,0.00,,,51.32,1724,WeatherCatV1.15B25,2013-09-03 19:36:00,
2013-09-03 15:41:00,69.4,66.0,29.76,SW,220,0.0,0.0,89,0.00,,,51.32,1724,WeatherCatV1.15B25,2013-09-03 19:41:00,
2013-09-03 15:46:00,69.6,66.2,29.76,SW,219,0.0,0.0,89,0.00,,,51.32,1724,WeatherCatV1.15B25,2013-09-03 19:46:00,
2013-09-03 15:51:00,69.7,65.6,29.76,SW,219,0.0,0.0,87,0.00,,,51.32,1724,WeatherCatV1.15B25,2013-09-03 19:51:00,
2013-09-03 15:56:00,70.0,65.6,29.76,SW,218,0.0,0.0,86,0.00,,,51.32,1726,WeatherCatV1.15B25,2013-09-03 19:56:00,
2013-09-03 16:01:00,70.1,65.7,29.76,SW,219,0.0,1.0,86,0.00,,,51.32,1724,WeatherCatV1.15B25,2013-09-03 20:01:00,
2013-09-03 16:06:00,69.9,64.8,29.76,WNW,293,1.0,1.0,84,0.00,,,51.32,1724,WeatherCatV1.15B25,2013-09-03 20:06:00,
2013-09-03 16:11:00,69.4,63.7,29.76,WNW,293,1.0,2.0,82,0.00,,,51.32,1726,WeatherCatV1.15B25,2013-09-03 20:11:00,
2013-09-03 16:16:00,68.9,63.2,29.76,WNW,293,0.0,0.0,82,0.00,,,51.32,1726,WeatherCatV1.15B25,2013-09-03 20:16:00,
2013-09-03 16:21:00,68.9,62.8,29.76,NW,312,1.0,2.0,81,0.00,,,51.32,1726,WeatherCatV1.15B25,2013-09-03 20:21:00,
2013-09-03 16:26:00,68.7,61.9,29.76,NW,309,0.0,0.0,79,0.00,,,51.32,1728,WeatherCatV1.15B25,2013-09-03 20:26:00,
2013-09-03 16:31:00,68.6,62.9,29.76,NW,309,0.0,1.0,82,0.00,,,51.32,1728,WeatherCatV1.15B25,2013-09-03 20:31:00,
2013-09-03 16:36:00,68.2,61.4,29.76,NW,309,0.0,0.0,79,0.00,,,51.32,1728,WeatherCatV1.15B25,2013-09-03 20:36:00,
2013-09-03 16:41:00,68.1,61.3,29.76,NW,311,0.0,2.0,79,0.00,,,51.32,1728,WeatherCatV1.15B25,2013-09-03 20:41:00,
2013-09-03 16:46:00,68.2,61.8,29.77,NW,313,0.0,0.0,80,0.00,,,51.32,1730,WeatherCatV1.15B25,2013-09-03 20:46:00,
2013-09-03 16:51:00,68.3,62.6,29.77,NW,313,0.0,0.0,82,0.00,,,51.32,1730,WeatherCatV1.15B25,2013-09-03 20:51:00,
2013-09-03 16:56:00,68.4,62.0,29.77,NW,313,2.0,2.0,80,0.00,,,51.32,1730,WeatherCatV1.15B25,2013-09-03 20:56:00,
2013-09-03 17:01:00,68.5,61.7,29.77,NW,313,0.0,0.0,79,0.00,,,51.32,1730,WeatherCatV1.15B25,2013-09-03 21:01:00,
2013-09-03 17:06:00,68.7,61.6,29.77,NW,313,0.0,0.0,78,0.00,,,51.32,1728,WeatherCatV1.15B25,2013-09-03 21:06:00,
2013-09-03 17:11:00,68.7,60.8,29.77,NW,313,0.0,1.0,76,0.00,,,51.32,1730,WeatherCatV1.15B25,2013-09-03 21:11:00,
2013-09-03 17:16:00,68.7,60.8,29.77,NW,313,0.0,0.0,76,0.00,,,51.32,1728,WeatherCatV1.15B25,2013-09-03 21:16:00,
2013-09-03 17:21:00,68.6,61.1,29.78,NW,313,0.0,1.0,77,0.00,,,51.32,1730,WeatherCatV1.15B25,2013-09-03 21:21:00,
2013-09-03 17:26:00,68.6,61.8,29.78,NW,311,0.0,1.0,79,0.00,,,51.32,1730,WeatherCatV1.15B25,2013-09-03 21:26:00,
2013-09-03 17:31:00,68.6,60.7,29.78,NW,313,0.0,1.0,76,0.00,,,51.32,1730,WeatherCatV1.15B25,2013-09-03 21:31:00,
2013-09-03 17:36:00,68.5,60.6,29.78,NW,313,0.0,0.0,76,0.00,,,51.32,1730,WeatherCatV1.15B25,2013-09-03 21:36:00,
2013-09-03 17:41:00,68.5,60.3,29.78,NW,312,0.0,1.0,75,0.00,,,51.32,1730,WeatherCatV1.15B25,2013-09-03 21:41:00,
2013-09-03 17:46:00,68.4,60.5,29.78,NW,312,0.0,0.0,76,0.00,,,51.32,1730,WeatherCatV1.15B25,2013-09-03 21:46:00,
2013-09-03 17:51:00,68.2,60.3,29.78,NW,312,0.0,0.0,76,0.00,,,51.32,1730,WeatherCatV1.15B25,2013-09-03 21:51:00,
2013-09-03 17:56:00,67.9,59.7,29.78,NW,312,0.0,0.0,75,0.00,,,51.32,1730,WeatherCatV1.15B25,2013-09-03 21:56:00,
2013-09-03 18:01:00,67.7,59.9,29.78,NW,311,0.0,0.0,76,0.00,,,51.32,1730,WeatherCatV1.15B25,2013-09-03 22:01:00,
2013-09-03 18:06:00,67.6,59.8,29.78,NW,312,0.0,0.0,76,0.00,,,51.32,1731,WeatherCatV1.15B25,2013-09-03 22:06:00,
2013-09-03 18:11:00,67.5,60.0,29.79,NW,312,0.0,1.0,77,0.00,,,51.32,1731,WeatherCatV1.15B25,2013-09-03 22:11:00,
2013-09-03 18:16:00,67.3,59.8,29.79,NW,312,0.0,0.0,77,0.00,,,51.32,1731,WeatherCatV1.15B25,2013-09-03 22:16:00,
2013-09-03 18:21:00,67.0,59.9,29.80,NW,312,0.0,0.0,78,0.00,,,51.32,1731,WeatherCatV1.15B25,2013-09-03 22:21:00,
2013-09-03 18:26:00,66.8,60.1,29.80,NW,312,0.0,0.0,79,0.00,,,51.32,1731,WeatherCatV1.15B25,2013-09-03 22:26:00,
2013-09-03 18:31:00,66.7,60.0,29.80,NW,312,0.0,0.0,79,0.00,,,51.32,1731,WeatherCatV1.15B25,2013-09-03 22:31:00,
2013-09-03 18:36:00,66.5,59.4,29.80,NW,311,0.0,0.0,78,0.00,,,51.32,1731,WeatherCatV1.15B25,2013-09-03 22:36:00,
2013-09-03 18:41:00,66.5,60.1,29.80,NW,312,0.0,0.0,80,0.00,,,51.32,1731,WeatherCatV1.15B25,2013-09-03 22:41:00,
2013-09-03 18:46:00,66.3,60.3,29.81,NW,312,0.0,0.0,81,0.00,,,51.32,1733,WeatherCatV1.15B25,2013-09-03 22:46:00,
2013-09-03 18:51:00,66.1,60.1,29.80,NW,312,0.0,0.0,81,0.00,,,51.32,1733,WeatherCatV1.15B25,2013-09-03 22:51:00,
2013-09-03 18:56:00,65.8,60.1,29.80,NW,312,0.0,0.0,82,0.00,,,51.32,1733,WeatherCatV1.15B25,2013-09-03 22:56:00,
2013-09-03 19:01:00,65.4,59.8,29.80,NW,311,0.0,1.0,82,0.00,,,51.32,1733,WeatherCatV1.15B25,2013-09-03 23:01:00,
2013-09-03 19:06:00,65.1,59.5,29.81,NW,312,0.0,1.0,82,0.00,,,51.32,1735,WeatherCatV1.15B25,2013-09-03 23:06:00,
2013-09-03 19:11:00,64.9,59.6,29.81,NW,312,0.0,0.0,83,0.00,,,51.32,1735,WeatherCatV1.15B25,2013-09-03 23:11:00,
2013-09-03 19:16:00,64.8,59.5,29.81,NW,312,0.0,1.0,83,0.00,,,51.32,1735,WeatherCatV1.15B25,2013-09-03 23:16:00,
2013-09-03 19:21:00,64.7,59.4,29.81,NW,312,0.0,1.0,83,0.00,,,51.32,1737,WeatherCatV1.15B25,2013-09-03 23:21:00,
2013-09-03 19:26:00,64.6,59.3,29.81,NW,312,0.0,0.0,83,0.00,,,51.32,1737,WeatherCatV1.15B25,2013-09-03 23:26:00,
2013-09-03 19:31:00,64.5,59.2,29.81,NW,311,0.0,0.0,83,0.00,,,51.32,1737,WeatherCatV1.15B25,2013-09-03 23:31:00,
2013-09-03 19:36:00,64.4,59.5,29.82,NW,312,1.0,1.0,84,0.00,,,51.32,1737,WeatherCatV1.15B25,2013-09-03 23:36:00,
2013-09-03 19:41:00,64.4,59.5,29.82,NW,311,0.0,1.0,84,0.00,,,51.32,1737,WeatherCatV1.15B25,2013-09-03 23:41:00,
2013-09-03 19:46:00,64.4,59.1,29.82,NW,312,0.0,0.0,83,0.00,,,51.32,1737,WeatherCatV1.15B25,2013-09-03 23:46:00,
2013-09-03 19:51:00,64.4,59.5,29.82,NW,312,0.0,0.0,84,0.00,,,51.32,1738,WeatherCatV1.15B25,2013-09-03 23:51:00,
2013-09-03 19:56:00,64.3,59.0,29.82,NW,312,0.0,0.0,83,0.00,,,51.32,1738,WeatherCatV1.15B25,2013-09-03 23:56:00,
2013-09-03 20:01:00,64.3,59.4,29.82,NW,312,1.0,1.0,84,0.00,,,51.32,1738,WeatherCatV1.15B25,2013-09-04 00:01:00,
2013-09-03 20:06:00,64.2,59.3,29.83,NW,311,0.0,1.0,84,0.00,,,51.32,1738,WeatherCatV1.15B25,2013-09-04 00:06:00,
2013-09-03 20:11:00,64.1,58.8,29.83,NW,312,0.0,0.0,83,0.00,,,51.32,1740,WeatherCatV1.15B25,2013-09-04 00:11:00,
2013-09-03 20:16:00,64.1,59.2,29.83,NW,319,2.0,2.0,84,0.00,,,51.32,1740,WeatherCatV1.15B25,2013-09-04 00:16:00,
2013-09-03 20:21:00,64.0,58.7,29.83,NW,319,0.0,1.0,83,0.00,,,51.32,1740,WeatherCatV1.15B25,2013-09-04 00:21:00,
2013-09-03 20:26:00,63.9,59.0,29.83,NW,319,0.0,0.0,84,0.00,,,51.32,1742,WeatherCatV1.15B25,2013-09-04 00:26:00,
2013-09-03 20:31:00,63.9,58.6,29.83,NW,314,0.0,1.0,83,0.00,,,51.32,1742,WeatherCatV1.15B25,2013-09-04 00:31:00,
2013-09-03 20:36:00,63.8,58.9,29.83,NW,314,0.0,1.0,84,0.00,,,51.32,1742,WeatherCatV1.15B25,2013-09-04 00:36:00,
2013-09-03 20:41:00,63.5,58.6,29.84,NW,313,0.0,1.0,84,0.00,,,51.32,1742,WeatherCatV1.15B25,2013-09-04 00:41:00,
2013-09-03 20:46:00,63.4,58.5,29.84,NW,313,0.0,1.0,84,0.00,,,51.32,1744,WeatherCatV1.15B25,2013-09-04 00:46:00,
2013-09-03 20:51:00,63.3,58.4,29.84,NW,313,0.0,0.0,84,0.00,,,51.32,1744,WeatherCatV1.15B25,2013-09-04 00:51:00,
2013-09-03 20:56:00,63.2,57.9,29.84,NW,313,0.0,1.0,83,0.00,,,51.32,1744,WeatherCatV1.15B25,2013-09-04 00:56:00,
2013-09-03 21:01:00,63.1,57.8,29.84,NW,308,0.0,1.0,83,0.00,,,51.32,1746,WeatherCatV1.15B25,2013-09-04 01:01:00,
2013-09-03 21:06:00,63.0,57.8,29.84,NW,308,0.0,0.0,83,0.00,,,51.32,1747,WeatherCatV1.15B25,2013-09-04 01:06:00,
2013-09-03 21:12:00,63.0,58.1,29.84,NW,308,0.0,1.0,84,0.00,,,51.32,1747,WeatherCatV1.15B25,2013-09-04 01:12:00,
2013-09-03 21:17:00,62.9,58.0,29.84,NW,308,0.0,0.0,84,0.00,,,51.32,1749,WeatherCatV1.15B25,2013-09-04 01:17:00,
2013-09-03 21:22:00,62.8,57.6,29.85,NW,308,0.0,1.0,83,0.00,,,51.32,1749,WeatherCatV1.15B25,2013-09-04 01:22:00,
2013-09-03 21:27:00,62.7,57.5,29.85,NW,307,0.0,2.0,83,0.00,,,51.32,1749,WeatherCatV1.15B25,2013-09-04 01:27:00,
2013-09-03 21:31:00,62.7,57.8,29.85,NW,307,0.0,1.0,84,0.00,,,51.32,1751,WeatherCatV1.15B25,2013-09-04 01:31:00,
2013-09-03 21:36:00,62.6,57.7,29.85,NW,308,0.0,1.0,84,0.00,,,51.32,1753,WeatherCatV1.15B25,2013-09-04 01:36:00,
2013-09-03 21:41:00,62.5,57.6,29.85,NW,308,0.0,0.0,84,0.00,,,51.32,1753,WeatherCatV1.15B25,2013-09-04 01:41:00,
2013-09-03 21:46:00,62.4,57.5,29.85,NW,308,0.0,0.0,84,0.00,,,51.32,1753,WeatherCatV1.15B25,2013-09-04 01:46:00,
2013-09-03 21:51:00,62.3,57.4,29.86,NW,311,0.0,2.0,84,0.00,,,51.32,1754,WeatherCatV1.15B25,2013-09-04 01:51:00,
2013-09-03 21:56:00,62.3,57.4,29.86,NW,311,0.0,1.0,84,0.00,,,51.32,1754,WeatherCatV1.15B25,2013-09-04 01:56:00,
2013-09-03 22:01:00,62.2,57.3,29.85,NW,311,0.0,1.0,84,0.00,,,51.32,1754,WeatherCatV1.15B25,2013-09-04 02:01:00,
2013-09-03 22:06:00,62.2,57.3,29.85,NW,311,0.0,0.0,84,0.00,,,51.32,1754,WeatherCatV1.15B25,2013-09-04 02:06:00,
2013-09-03 22:11:00,62.1,57.2,29.85,NW,311,1.0,1.0,84,0.00,,,51.32,1756,WeatherCatV1.15B25,2013-09-04 02:11:00,
2013-09-03 22:16:00,62.0,57.1,29.86,NW,311,0.0,0.0,84,0.00,,,51.32,1756,WeatherCatV1.15B25,2013-09-04 02:16:00,
2013-09-03 22:21:00,62.0,57.1,29.86,NW,311,0.0,1.0,84,0.00,,,51.32,1756,WeatherCatV1.15B25,2013-09-04 02:21:00,
2013-09-03 22:26:00,61.9,57.0,29.86,NW,311,0.0,0.0,84,0.00,,,51.32,1756,WeatherCatV1.15B25,2013-09-04 02:26:00,
2013-09-03 22:31:00,61.8,57.2,29.86,NW,311,0.0,0.0,85,0.00,,,51.32,1758,WeatherCatV1.15B25,2013-09-04 02:31:00,
2013-09-03 22:36:00,61.7,57.1,29.86,NW,311,0.0,0.0,85,0.00,,,51.32,1758,WeatherCatV1.15B25,2013-09-04 02:36:00,
2013-09-03 22:41:00,61.7,57.5,29.86,NW,311,0.0,0.0,86,0.00,,,51.32,1758,WeatherCatV1.15B25,2013-09-04 02:41:00,
2013-09-03 22:46:00,61.6,57.4,29.86,NW,311,0.0,0.0,86,0.00,,,51.32,1758,WeatherCatV1.15B25,2013-09-04 02:46:00,
2013-09-03 22:51:00,61.5,57.3,29.86,NW,311,0.0,0.0,86,0.00,,,51.32,1760,WeatherCatV1.15B25,2013-09-04 02:51:00,
2013-09-03 22:56:00,61.5,57.3,29.86,NW,311,0.0,0.0,86,0.00,,,51.32,1760,WeatherCatV1.15B25,2013-09-04 02:56:00,
2013-09-03 23:01:00,61.4,57.5,29.86,NW,311,0.0,0.0,87,0.00,,,51.32,1760,WeatherCatV1.15B25,2013-09-04 03:01:00,
2013-09-03 23:06:00,61.4,57.5,29.86,NW,311,0.0,0.0,87,0.00,,,51.32,1760,WeatherCatV1.15B25,2013-09-04 03:06:00,
2013-09-03 23:11:00,61.3,57.4,29.86,NW,311,0.0,0.0,87,0.00,,,51.32,1761,WeatherCatV1.15B25,2013-09-04 03:11:00,
2013-09-03 23:16:00,61.3,57.4,29.86,NW,311,0.0,0.0,87,0.00,,,51.32,1761,WeatherCatV1.15B25,2013-09-04 03:16:00,
2013-09-03 23:21:00,61.3,57.4,29.87,NW,311,0.0,0.0,87,0.00,,,51.32,1761,WeatherCatV1.15B25,2013-09-04 03:21:00,
2013-09-03 23:26:00,61.2,57.3,29.87,NW,311,0.0,0.0,87,0.00,,,51.32,1761,WeatherCatV1.15B25,2013-09-04 03:26:00,
2013-09-03 23:31:00,61.1,57.2,29.87,NW,311,0.0,0.0,87,0.00,,,51.32,1761,WeatherCatV1.15B25,2013-09-04 03:31:00,
2013-09-03 23:36:00,60.9,57.0,29.87,NW,311,0.0,1.0,87,0.00,,,51.32,1763,WeatherCatV1.15B25,2013-09-04 03:36:00,
2013-09-03 23:41:00,60.8,56.9,29.87,NW,311,0.0,0.0,87,0.00,,,51.32,1763,WeatherCatV1.15B25,2013-09-04 03:41:00,
2013-09-03 23:46:00,60.7,56.8,29.87,NW,311,0.0,0.0,87,0.00,,,51.32,1763,WeatherCatV1.15B25,2013-09-04 03:46:00,
2013-09-03 23:51:00,60.6,56.7,29.87,NW,311,0.0,0.0,87,0.00,,,51.32,1765,WeatherCatV1.15B25,2013-09-04 03:51:00,
2013-09-03 23:56:00,60.5,56.9,29.86,NW,311,0.0,0.0,88,0.00,,,51.32,1765,WeatherCatV1.15B25,2013-09-04 03:56:00,